AAR328 ZBTJ-RKSI
Flight info
| Callsign | AAR328 |
|---|---|
| Flight time | 0h 45m |
| Altitude | 29100 |
| Route | MUGLO1T MUGLO W34 VAPGU W100 ORAVA W201 UNSEK A326 DONVO G597 AGAVO/N0492F290 Y644 REBIT REBIT2H |
| Aircraft | A359/H-SDE2E3GHIJ3J4J5LM1ORWXY/LB1D1 |
Departure
| Time | 2026-05-06 03:23 |
|---|---|
| Airport | Tianjin Binhai International Airport (ZBTJ) |
Arrival
| Time | 2026-05-06 04:09 |
|---|---|
| Airport | Incheon International Airport (RKSI) |
| Time | Latitude | Longitude | Altitude | Speed | Heading |
|---|---|---|---|---|---|
| 2026-05-06 03:00 | 39.12644 | 117.35332 | 25 ft | 0 kts | 274° |
| 2026-05-06 03:11 | 39.12642 | 117.35362 | 27 ft | 4 kts | 272° |
| 2026-05-06 03:12 | 39.12646 | 117.35394 | 30 ft | 4 kts | 232° |
| 2026-05-06 03:12 | 39.12657 | 117.35407 | 31 ft | 4 kts | 195° |
| 2026-05-06 03:12 | 39.12693 | 117.35410 | 29 ft | 4 kts | 181° |
| 2026-05-06 03:12 | 39.12698 | 117.35410 | 31 ft | 0 kts | 184° |
| 2026-05-06 03:16 | 39.12642 | 117.35406 | 28 ft | 18 kts | 183° |
| 2026-05-06 03:17 | 39.12499 | 117.35395 | 28 ft | 22 kts | 184° |
| 2026-05-06 03:17 | 39.12339 | 117.35381 | 28 ft | 24 kts | 182° |
| 2026-05-06 03:17 | 39.12194 | 117.35348 | 28 ft | 19 kts | 224° |
| 2026-05-06 03:17 | 39.12145 | 117.35199 | 29 ft | 12 kts | 283° |
| 2026-05-06 03:18 | 39.12196 | 117.35145 | 28 ft | 10 kts | 334° |
| 2026-05-06 03:18 | 39.12271 | 117.35102 | 30 ft | 13 kts | 340° |
| 2026-05-06 03:18 | 39.12356 | 117.35051 | 26 ft | 15 kts | 335° |
| 2026-05-06 03:18 | 39.12460 | 117.34990 | 29 ft | 18 kts | 335° |
| 2026-05-06 03:19 | 39.12578 | 117.34917 | 31 ft | 20 kts | 334° |
| 2026-05-06 03:19 | 39.12715 | 117.34828 | 30 ft | 25 kts | 333° |
| 2026-05-06 03:19 | 39.12874 | 117.34731 | 29 ft | 26 kts | 334° |
| 2026-05-06 03:19 | 39.13046 | 117.34623 | 29 ft | 29 kts | 336° |
| 2026-05-06 03:20 | 39.13427 | 117.34393 | 31 ft | 32 kts | 335° |
| 2026-05-06 03:20 | 39.13632 | 117.34269 | 30 ft | 33 kts | 334° |
| 2026-05-06 03:20 | 39.13847 | 117.34136 | 30 ft | 35 kts | 334° |
| 2026-05-06 03:21 | 39.14069 | 117.34002 | 28 ft | 30 kts | 333° |
| 2026-05-06 03:21 | 39.14146 | 117.33915 | 29 ft | 14 kts | 279° |
| 2026-05-06 03:21 | 39.14125 | 117.33822 | 30 ft | 14 kts | 245° |
| 2026-05-06 03:21 | 39.14078 | 117.33700 | 29 ft | 16 kts | 242° |
| 2026-05-06 03:22 | 39.14015 | 117.33649 | 28 ft | 8 kts | 166° |
| 2026-05-06 03:22 | 39.13995 | 117.33660 | 29 ft | 0 kts | 155° |
| 2026-05-06 03:23 | 39.13934 | 117.33697 | 30 ft | 38 kts | 154° |
| 2026-05-06 03:23 | 39.13444 | 117.34001 | 27 ft | 116 kts | 155° |
| 2026-05-06 03:23 | 39.12519 | 117.34572 | 155 ft | 165 kts | 155° |
| 2026-05-06 03:23 | 39.11515 | 117.35175 | 994 ft | 161 kts | 156° |
| 2026-05-06 03:24 | 39.10454 | 117.35807 | 1477 ft | 185 kts | 156° |
| 2026-05-06 03:24 | 39.09192 | 117.36588 | 1919 ft | 216 kts | 155° |
| 2026-05-06 03:24 | 39.07795 | 117.37461 | 2674 ft | 230 kts | 155° |
| 2026-05-06 03:24 | 39.06264 | 117.38415 | 3141 ft | 258 kts | 154° |
| 2026-05-06 03:25 | 39.04598 | 117.39448 | 3825 ft | 271 kts | 155° |
| 2026-05-06 03:25 | 39.02873 | 117.40516 | 4656 ft | 278 kts | 156° |
| 2026-05-06 03:25 | 39.01133 | 117.41590 | 5659 ft | 277 kts | 158° |
| 2026-05-06 03:25 | 38.99416 | 117.42709 | 6681 ft | 278 kts | 153° |
| 2026-05-06 03:26 | 38.97938 | 117.44367 | 7631 ft | 289 kts | 130° |
| 2026-05-06 03:26 | 38.97109 | 117.46756 | 8609 ft | 301 kts | 103° |
| 2026-05-06 03:26 | 38.97054 | 117.48791 | 9356 ft | 309 kts | 87° |
| 2026-05-06 03:26 | 38.97266 | 117.50855 | 10010 ft | 315 kts | 83° |
| 2026-05-06 03:27 | 38.97639 | 117.53655 | 10636 ft | 332 kts | 82° |
| 2026-05-06 03:27 | 38.98041 | 117.56682 | 11033 ft | 355 kts | 82° |
| 2026-05-06 03:27 | 38.98455 | 117.59911 | 11506 ft | 374 kts | 82° |
| 2026-05-06 03:27 | 38.98873 | 117.63254 | 12226 ft | 383 kts | 82° |
| 2026-05-06 03:28 | 38.99276 | 117.66520 | 13019 ft | 388 kts | 82° |
| 2026-05-06 03:28 | 38.99721 | 117.69966 | 13831 ft | 393 kts | 79° |
| 2026-05-06 03:28 | 39.00385 | 117.73396 | 14568 ft | 399 kts | 75° |
| 2026-05-06 03:28 | 39.01150 | 117.76850 | 15324 ft | 405 kts | 73° |
| 2026-05-06 03:29 | 39.01935 | 117.80353 | 16086 ft | 410 kts | 73° |
| 2026-05-06 03:29 | 39.02727 | 117.83906 | 16863 ft | 415 kts | 73° |
| 2026-05-06 03:29 | 39.03525 | 117.87503 | 17617 ft | 421 kts | 73° |
| 2026-05-06 03:29 | 39.04332 | 117.91151 | 18327 ft | 426 kts | 72° |
| 2026-05-06 03:30 | 39.05146 | 117.94843 | 18961 ft | 432 kts | 72° |
| 2026-05-06 03:30 | 39.05963 | 117.98580 | 19590 ft | 438 kts | 73° |
| 2026-05-06 03:30 | 39.06559 | 118.02469 | 20234 ft | 445 kts | 83° |
| 2026-05-06 03:30 | 39.06530 | 118.06475 | 20905 ft | 451 kts | 96° |
| 2026-05-06 03:31 | 39.06104 | 118.10439 | 21565 ft | 456 kts | 101° |
| 2026-05-06 03:31 | 39.05500 | 118.14471 | 22227 ft | 462 kts | 103° |
| 2026-05-06 03:31 | 39.04813 | 118.18527 | 22883 ft | 468 kts | 104° |
| 2026-05-06 03:31 | 39.04088 | 118.22638 | 23519 ft | 473 kts | 104° |
| 2026-05-06 03:32 | 39.03329 | 118.26788 | 24047 ft | 479 kts | 104° |
| 2026-05-06 03:32 | 39.02549 | 118.30980 | 24580 ft | 484 kts | 105° |
| 2026-05-06 03:32 | 39.01758 | 118.35209 | 25127 ft | 490 kts | 105° |
| 2026-05-06 03:32 | 39.00959 | 118.39483 | 25664 ft | 494 kts | 105° |
| 2026-05-06 03:33 | 39.00149 | 118.43822 | 26210 ft | 499 kts | 105° |
| 2026-05-06 03:33 | 38.99335 | 118.48190 | 26740 ft | 504 kts | 105° |
| 2026-05-06 03:33 | 38.98514 | 118.52594 | 27259 ft | 509 kts | 105° |
| 2026-05-06 03:33 | 38.97683 | 118.57048 | 27787 ft | 514 kts | 105° |
| 2026-05-06 03:34 | 38.96844 | 118.61536 | 28294 ft | 519 kts | 105° |
| 2026-05-06 03:34 | 38.96005 | 118.66014 | 28743 ft | 524 kts | 105° |
| 2026-05-06 03:34 | 38.95150 | 118.70569 | 28901 ft | 525 kts | 105° |
| 2026-05-06 03:34 | 38.94276 | 118.75205 | 28909 ft | 540 kts | 105° |
| 2026-05-06 03:35 | 38.93378 | 118.79955 | 28906 ft | 551 kts | 105° |
| 2026-05-06 03:35 | 38.92473 | 118.84741 | 28897 ft | 552 kts | 105° |
| 2026-05-06 03:35 | 38.90658 | 118.94309 | 28905 ft | 551 kts | 105° |
| 2026-05-06 03:36 | 38.88833 | 119.03878 | 28902 ft | 550 kts | 105° |
| 2026-05-06 03:36 | 38.87017 | 119.13350 | 28904 ft | 550 kts | 105° |
| 2026-05-06 03:37 | 38.85181 | 119.22882 | 28909 ft | 550 kts | 105° |
| 2026-05-06 03:37 | 38.83337 | 119.32400 | 28903 ft | 549 kts | 105° |
| 2026-05-06 03:38 | 38.81489 | 119.41903 | 28909 ft | 549 kts | 105° |
| 2026-05-06 03:38 | 38.79633 | 119.51404 | 28910 ft | 549 kts | 105° |
| 2026-05-06 03:39 | 38.77766 | 119.60911 | 28913 ft | 549 kts | 105° |
| 2026-05-06 03:39 | 38.75894 | 119.70403 | 28913 ft | 550 kts | 105° |
| 2026-05-06 03:40 | 38.74009 | 119.79918 | 28915 ft | 550 kts | 105° |
| 2026-05-06 03:40 | 38.72135 | 119.89333 | 28917 ft | 550 kts | 105° |
| 2026-05-06 03:41 | 38.70237 | 119.98827 | 28924 ft | 550 kts | 105° |
| 2026-05-06 03:41 | 38.68498 | 120.07486 | 28924 ft | 550 kts | 105° |
| 2026-05-06 03:42 | 38.66553 | 120.17127 | 28925 ft | 550 kts | 105° |
| 2026-05-06 03:42 | 38.64677 | 120.26386 | 28926 ft | 550 kts | 105° |
| 2026-05-06 03:43 | 38.62748 | 120.35860 | 28929 ft | 550 kts | 105° |
| 2026-05-06 03:43 | 38.55113 | 120.72962 | 28939 ft | 551 kts | 105° |
| 2026-05-06 03:44 | 38.47234 | 121.10586 | 28959 ft | 551 kts | 105° |
| 2026-05-06 03:44 | 38.40834 | 121.48792 | 28973 ft | 551 kts | 101° |
| 2026-05-06 03:45 | 38.34425 | 121.86948 | 28978 ft | 549 kts | 101° |
| 2026-05-06 03:45 | 38.27925 | 122.24922 | 28992 ft | 547 kts | 101° |
| 2026-05-06 03:46 | 38.24420 | 122.43737 | 28997 ft | 547 kts | 115° |
| 2026-05-06 03:46 | 38.14932 | 122.58564 | 29007 ft | 543 kts | 137° |
| 2026-05-06 03:46 | 37.93748 | 122.85730 | 29033 ft | 541 kts | 136° |
| 2026-05-06 03:47 | 37.72674 | 123.12872 | 29050 ft | 539 kts | 136° |
| 2026-05-06 03:47 | 37.52312 | 123.40578 | 29057 ft | 541 kts | 128° |
| 2026-05-06 03:48 | 37.34263 | 123.70835 | 29088 ft | 540 kts | 128° |
| 2026-05-06 03:48 | 37.17676 | 124.01725 | 29101 ft | 538 kts | 104° |
| 2026-05-06 03:49 | 37.17305 | 124.20279 | 29101 ft | 533 kts | 84° |
| 2026-05-06 03:49 | 37.17981 | 124.38899 | 29108 ft | 532 kts | 86° |
| 2026-05-06 03:49 | 37.18414 | 124.58294 | 29121 ft | 532 kts | 86° |
| 2026-05-06 03:50 | 37.18610 | 124.67516 | 29037 ft | 517 kts | 86° |
| 2026-05-06 03:50 | 37.18733 | 124.73533 | 28497 ft | 505 kts | 86° |
| 2026-05-06 03:50 | 37.19096 | 124.90991 | 25801 ft | 493 kts | 87° |
| 2026-05-06 03:51 | 37.19412 | 125.07751 | 23232 ft | 481 kts | 88° |
| 2026-05-06 03:51 | 37.19700 | 125.24234 | 20632 ft | 464 kts | 88° |
| 2026-05-06 03:51 | 37.19957 | 125.40122 | 18029 ft | 447 kts | 89° |
| 2026-05-06 03:51 | 37.22881 | 125.54498 | 15449 ft | 423 kts | 57° |
| 2026-05-06 03:52 | 37.26975 | 125.62739 | 13755 ft | 412 kts | 58° |
| 2026-05-06 03:52 | 37.28476 | 125.65785 | 13039 ft | 409 kts | 58° |
| 2026-05-06 03:52 | 37.29912 | 125.68713 | 12415 ft | 404 kts | 58° |
| 2026-05-06 03:52 | 37.30863 | 125.70653 | 12010 ft | 400 kts | 58° |
| 2026-05-06 03:53 | 37.32168 | 125.73502 | 11682 ft | 377 kts | 65° |
| 2026-05-06 03:53 | 37.32875 | 125.76493 | 11542 ft | 340 kts | 84° |
| 2026-05-06 03:53 | 37.32821 | 125.79317 | 11409 ft | 309 kts | 99° |
| 2026-05-06 03:53 | 37.32498 | 125.81886 | 11267 ft | 286 kts | 102° |
| 2026-05-06 03:54 | 37.32153 | 125.84328 | 11142 ft | 286 kts | 102° |
| 2026-05-06 03:54 | 37.31800 | 125.86807 | 11043 ft | 288 kts | 102° |
| 2026-05-06 03:54 | 37.31448 | 125.89283 | 10922 ft | 287 kts | 102° |
| 2026-05-06 03:54 | 37.27862 | 125.96552 | 10026 ft | 278 kts | 132° |
| 2026-05-06 03:55 | 37.26573 | 125.98521 | 9758 ft | 289 kts | 132° |
| 2026-05-06 03:55 | 37.25294 | 126.00521 | 9641 ft | 296 kts | 129° |
| 2026-05-06 03:55 | 37.24387 | 126.02829 | 9187 ft | 299 kts | 104° |
| 2026-05-06 03:55 | 37.24452 | 126.05410 | 8938 ft | 301 kts | 73° |
| 2026-05-06 03:56 | 37.25398 | 126.07747 | 8988 ft | 301 kts | 55° |
| 2026-05-06 03:56 | 37.26597 | 126.09867 | 9024 ft | 301 kts | 53° |
| 2026-05-06 03:56 | 37.27994 | 126.11719 | 8889 ft | 285 kts | 32° |
| 2026-05-06 03:56 | 37.29789 | 126.12446 | 8763 ft | 264 kts | 357° |
| 2026-05-06 03:57 | 37.31474 | 126.11858 | 8581 ft | 246 kts | 326° |
| 2026-05-06 03:57 | 37.32869 | 126.10666 | 8325 ft | 240 kts | 320° |
| 2026-05-06 03:57 | 37.34192 | 126.09423 | 8069 ft | 235 kts | 320° |
| 2026-05-06 03:57 | 37.35538 | 126.08172 | 7805 ft | 233 kts | 320° |
| 2026-05-06 03:58 | 37.40726 | 126.03466 | 6840 ft | 229 kts | 321° |
| 2026-05-06 03:58 | 37.43956 | 126.01045 | 6254 ft | 231 kts | 344° |
| 2026-05-06 03:58 | 37.45024 | 126.00976 | 6079 ft | 236 kts | 4° |
| 2026-05-06 03:58 | 37.46544 | 126.01769 | 5833 ft | 242 kts | 37° |
| 2026-05-06 03:59 | 37.49168 | 126.06044 | 5215 ft | 244 kts | 54° |
| 2026-05-06 03:59 | 37.49946 | 126.08666 | 4955 ft | 244 kts | 90° |
| 2026-05-06 03:59 | 37.49521 | 126.10674 | 4827 ft | 237 kts | 126° |
| 2026-05-06 03:59 | 37.48791 | 126.11704 | 4751 ft | 232 kts | 144° |
| 2026-05-06 04:00 | 37.47521 | 126.12902 | 4617 ft | 230 kts | 149° |
| 2026-05-06 04:00 | 37.44710 | 126.15358 | 4345 ft | 230 kts | 149° |
| 2026-05-06 04:00 | 37.39514 | 126.19970 | 3851 ft | 227 kts | 149° |
| 2026-05-06 04:00 | 37.38027 | 126.21300 | 3708 ft | 226 kts | 150° |
| 2026-05-06 04:01 | 37.36798 | 126.22534 | 3572 ft | 229 kts | 139° |
| 2026-05-06 04:01 | 37.36020 | 126.24295 | 3448 ft | 237 kts | 106° |
| 2026-05-06 04:01 | 37.37385 | 126.28882 | 3163 ft | 244 kts | 53° |
| 2026-05-06 04:01 | 37.40048 | 126.32563 | 2858 ft | 242 kts | 23° |
| 2026-05-06 04:02 | 37.41647 | 126.32924 | 2733 ft | 231 kts | 347° |
| 2026-05-06 04:02 | 37.43103 | 126.32225 | 2610 ft | 222 kts | 321° |
| 2026-05-06 04:02 | 37.47909 | 126.27906 | 2132 ft | 221 kts | 317° |
| 2026-05-06 04:02 | 37.52946 | 126.23390 | 1634 ft | 221 kts | 317° |
| 2026-05-06 04:03 | 37.55426 | 126.21376 | 1575 ft | 227 kts | 334° |
| 2026-05-06 04:03 | 37.57003 | 126.21232 | 1595 ft | 238 kts | 12° |
| 2026-05-06 04:03 | 37.58402 | 126.22319 | 1603 ft | 240 kts | 49° |
| 2026-05-06 04:03 | 37.60543 | 126.26229 | 1484 ft | 235 kts | 69° |
| 2026-05-06 04:04 | 37.60794 | 126.28197 | 1370 ft | 223 kts | 105° |
| 2026-05-06 04:04 | 37.60168 | 126.29888 | 1244 ft | 209 kts | 133° |
| 2026-05-06 04:04 | 37.59142 | 126.31048 | 1179 ft | 189 kts | 154° |
| 2026-05-06 04:04 | 37.58065 | 126.31873 | 1181 ft | 175 kts | 152° |
| 2026-05-06 04:05 | 37.57134 | 126.32745 | 1198 ft | 158 kts | 149° |
| 2026-05-06 04:05 | 37.56260 | 126.33535 | 1198 ft | 153 kts | 151° |
| 2026-05-06 04:05 | 37.55436 | 126.34273 | 1190 ft | 135 kts | 152° |
| 2026-05-06 04:05 | 37.54708 | 126.34925 | 1181 ft | 124 kts | 153° |
| 2026-05-06 04:06 | 37.54011 | 126.35546 | 1189 ft | 123 kts | 153° |
| 2026-05-06 04:06 | 37.53313 | 126.36168 | 1188 ft | 123 kts | 153° |
| 2026-05-06 04:06 | 37.52610 | 126.36798 | 1186 ft | 124 kts | 153° |
| 2026-05-06 04:06 | 37.51908 | 126.37427 | 1172 ft | 124 kts | 153° |
| 2026-05-06 04:07 | 37.51203 | 126.38056 | 1024 ft | 123 kts | 151° |
| 2026-05-06 04:07 | 37.50503 | 126.38681 | 840 ft | 123 kts | 151° |
| 2026-05-06 04:07 | 37.49802 | 126.39300 | 682 ft | 123 kts | 150° |
| 2026-05-06 04:07 | 37.49099 | 126.39902 | 533 ft | 121 kts | 146° |
| 2026-05-06 04:08 | 37.48417 | 126.40542 | 361 ft | 122 kts | 148° |
| 2026-05-06 04:08 | 37.47726 | 126.41176 | 199 ft | 122 kts | 149° |
| 2026-05-06 04:08 | 37.47040 | 126.41789 | 42 ft | 120 kts | 150° |
| 2026-05-06 04:08 | 37.46444 | 126.42301 | 39 ft | 87 kts | 146° |
| 2026-05-06 04:09 | 37.46025 | 126.42672 | 38 ft | 61 kts | 145° |
| 2026-05-06 04:09 | 37.45734 | 126.42931 | 40 ft | 42 kts | 144° |
| 2026-05-06 04:09 | 37.45550 | 126.43094 | 41 ft | 22 kts | 145° |
| 2026-05-06 04:09 | 37.45443 | 126.43188 | 41 ft | 22 kts | 145° |
| 2026-05-06 04:10 | 37.45303 | 126.43334 | 39 ft | 30 kts | 128° |
| 2026-05-06 04:10 | 37.45208 | 126.43569 | 37 ft | 16 kts | 116° |
| 2026-05-06 04:10 | 37.45131 | 126.43729 | 39 ft | 26 kts | 136° |
| 2026-05-06 04:10 | 37.44965 | 126.43881 | 39 ft | 17 kts | 145° |
| 2026-05-06 04:11 | 37.44917 | 126.43996 | 39 ft | 16 kts | 62° |
| 2026-05-06 04:11 | 37.45015 | 126.44167 | 39 ft | 28 kts | 54° |
| 2026-05-06 04:11 | 37.45128 | 126.44373 | 39 ft | 23 kts | 53° |
| 2026-05-06 04:11 | 37.45224 | 126.44545 | 39 ft | 25 kts | 65° |
| 2026-05-06 04:12 | 37.45201 | 126.44683 | 39 ft | 11 kts | 126° |
| 2026-05-06 04:12 | 37.45181 | 126.44718 | 39 ft | 0 kts | 126° |
| 2026-05-06 04:12 | 37.45165 | 126.44742 | 39 ft | 8 kts | 136° |
| 2026-05-06 04:13 | 37.45143 | 126.44744 | 39 ft | 4 kts | 200° |
| 2026-05-06 04:13 | 37.45101 | 126.44713 | 39 ft | 2 kts | 214° |
| 2026-05-06 04:13 | 37.45083 | 126.44697 | 39 ft | 2 kts | 215° |